This is the latest recevied weather packets stored in our database for station/object WY7EM. If no packets are shown the sender has not sent any weather packets the latest 1 day(s).
| Time | Temp. | Humidity | Pressure | Rain* | Wind** | Luminosity | Snow |
|---|---|---|---|---|---|---|---|
| 1778021085 | 22.78° C | 19% | 1006.1 hPa | 0 mm | 1.79 m/s, 336° | 565 W/m² | - |
| 1778020782 | 21.67° C | 20% | 1006.1 hPa | 0 mm | 2.68 m/s, 303° | 573 W/m² | - |
| 1778020479 | 21.67° C | 20% | 1006.2 hPa | 0 mm | 1.79 m/s, 316° | 588 W/m² | - |
| 1778020175 | 21.67° C | 21% | 1006.4 hPa | 0 mm | 1.79 m/s, 262° | 599 W/m² | - |
| 1778019871 | 21.67° C | 21% | 1006.2 hPa | 0 mm | 1.79 m/s, 212° | 613 W/m² | - |
| 1778019567 | 21.67° C | 21% | 1006.4 hPa | 0 mm | 1.79 m/s, 273° | 620 W/m² | - |
| 1778019265 | 21.67° C | 22% | 1006.5 hPa | 0 mm | 2.68 m/s, 242° | 642 W/m² | - |
| 1778018962 | 21.11° C | 22% | 1006.5 hPa | 0 mm | 0.89 m/s, 305° | 661 W/m² | - |
| 1778018659 | 21.67° C | 22% | 1006.6 hPa | 0 mm | 2.24 m/s, 267° | 676 W/m² | - |
| 1778018356 | 21.11° C | 22% | 1006.8 hPa | 0 mm | 2.24 m/s, 296° | 203 W/m² | - |
| 1778018054 | 21.11° C | 22% | 1007 hPa | 0 mm | 1.79 m/s, 330° | 381 W/m² | - |
| 1778017752 | 20.56° C | 22% | 1007.1 hPa | 0 mm | 1.79 m/s, 354° | 130 W/m² | - |
| 1778017449 | 21.67° C | 21% | 1007 hPa | 0 mm | 2.24 m/s, 302° | 247 W/m² | - |
| 1778017147 | 22.22° C | 20% | 1007 hPa | 0 mm | 0 m/s | 753 W/m² | - |
| 1778016844 | 21.11° C | 21% | 1007.3 hPa | 0 mm | 0.45 m/s, 13° | 771 W/m² | - |
| 1778016540 | 21.11° C | 22% | 1007.6 hPa | 0 mm | 3.58 m/s, 322° | 786 W/m² | - |
| 1778016237 | 21.11° C | 22% | 1007.3 hPa | 0 mm | 3.58 m/s, 340° | 791 W/m² | - |
| 1778015934 | 21.11° C | 22% | 1007.6 hPa | 0 mm | 4.02 m/s, 356° | 795 W/m² | - |
| 1778015631 | 21.11° C | 23% | 1007.6 hPa | 0 mm | 2.68 m/s, 317° | 837 W/m² | - |
| 1778015327 | 21.11° C | 23% | 1007.6 hPa | 0 mm | 2.68 m/s, 317° | 837 W/m² | - |
| 1778015024 | 21.11° C | 22% | 1007.8 hPa | 0 mm | 2.24 m/s, 318° | 851 W/m² | - |
| 1778014721 | 21.11° C | 22% | 1007.9 hPa | 0 mm | 0.45 m/s, 8° | 843 W/m² | - |
| 1778014420 | 20.56° C | 23% | 1008 hPa | 0 mm | 5.81 m/s, 301° | 849 W/m² | - |
| 1778014116 | 21.67° C | 22% | 1008 hPa | 0 mm | 1.79 m/s, 309° | 850 W/m² | - |
| 1778013814 | 21.11° C | 23% | 1008.1 hPa | 0 mm | 2.68 m/s, 299° | 829 W/m² | - |
* Rain latest hour (hover to see other rain measurements)
** Current wind speed in m/s (hover to see current wind gust speed)